sensor_id;sensor_type;location;lat;lon;timestamp;pressure;altitude;pressure_sealevel;temperature;humidity
33795;BME280;51430;52.242;21.118;2023-08-17T01:06:39;100654.61;;;25.73;74.10
33795;BME280;51430;52.242;21.118;2023-08-17T01:18:40;100654.86;;;25.53;75.74
33795;BME280;51430;52.242;21.118;2023-08-17T01:22:18;100648.38;;;25.47;76.07
33795;BME280;51430;52.242;21.118;2023-08-17T01:26:47;100642.05;;;25.42;76.26
33795;BME280;51430;52.242;21.118;2023-08-17T03:18:27;100666.66;;;25.20;72.86
33795;BME280;51430;52.242;21.118;2023-08-17T03:21:14;100670.26;;;25.12;73.42
33795;BME280;51430;52.242;21.118;2023-08-17T03:24:01;100671.23;;;25.18;73.42
33795;BME280;51430;52.242;21.118;2023-08-17T03:33:27;100688.98;;;25.07;71.98
33795;BME280;51430;52.242;21.118;2023-08-17T03:36:53;100699.08;;;24.84;72.95
33795;BME280;51430;52.242;21.118;2023-08-17T03:40:52;100709.59;;;24.80;72.95
33795;BME280;51430;52.242;21.118;2023-08-17T03:44:42;100711.02;;;24.68;73.33
33795;BME280;51430;52.242;21.118;2023-08-17T03:47:51;100710.40;;;24.66;73.51
33795;BME280;51430;52.242;21.118;2023-08-17T03:51:40;100707.29;;;24.72;74.22
33795;BME280;51430;52.242;21.118;2023-08-17T03:55:07;100701.76;;;24.69;74.44
33795;BME280;51430;52.242;21.118;2023-08-17T03:58:40;100693.23;;;24.69;74.96
33795;BME280;51430;52.242;21.118;2023-08-17T04:02:39;100686.23;;;24.71;75.58
33795;BME280;51430;52.242;21.118;2023-08-17T04:06:13;100689.02;;;24.68;75.96
33795;BME280;51430;52.242;21.118;2023-08-17T04:09:52;100693.33;;;24.67;75.38
33795;BME280;51430;52.242;21.118;2023-08-17T04:12:20;100695.50;;;24.65;75.19
33795;BME280;51430;52.242;21.118;2023-08-17T04:14:46;100698.04;;;24.83;74.81
33795;BME280;51430;52.242;21.118;2023-08-17T04:17:12;100700.91;;;24.93;74.34
33795;BME280;51430;52.242;21.118;2023-08-17T04:19:39;100709.60;;;25.03;74.41
33795;BME280;51430;52.242;21.118;2023-08-17T04:22:05;100715.19;;;25.11;74.00
33795;BME280;51430;52.242;21.118;2023-08-17T04:24:32;100718.09;;;25.14;72.72
33795;BME280;51430;52.242;21.118;2023-08-17T04:26:58;100715.09;;;25.07;72.70
33795;BME280;51430;52.242;21.118;2023-08-17T04:29:25;100710.01;;;25.11;73.05
33795;BME280;51430;52.242;21.118;2023-08-17T04:31:51;100705.33;;;25.15;72.80
33795;BME280;51430;52.242;21.118;2023-08-17T04:34:18;100709.10;;;25.23;73.10
33795;BME280;51430;52.242;21.118;2023-08-17T04:36:45;100711.51;;;25.28;72.68
33795;BME280;51430;52.242;21.118;2023-08-17T04:39:11;100710.98;;;25.37;71.57
33795;BME280;51430;52.242;21.118;2023-08-17T04:41:38;100710.04;;;25.37;71.27
33795;BME280;51430;52.242;21.118;2023-08-17T04:44:05;100705.77;;;25.41;71.25
33795;BME280;51430;52.242;21.118;2023-08-17T04:46:32;100707.55;;;25.41;70.88
33795;BME280;51430;52.242;21.118;2023-08-17T04:48:58;100705.42;;;25.32;70.33
33795;BME280;51430;52.242;21.118;2023-08-17T04:51:25;100704.45;;;25.27;70.00
33795;BME280;51430;52.242;21.118;2023-08-17T04:53:51;100708.86;;;25.33;69.82
33795;BME280;51430;52.242;21.118;2023-08-17T04:56:18;100712.48;;;25.24;69.42
33795;BME280;51430;52.242;21.118;2023-08-17T04:58:46;100713.55;;;25.31;69.02
33795;BME280;51430;52.242;21.118;2023-08-17T05:01:13;100711.51;;;25.46;68.74
33795;BME280;51430;52.242;21.118;2023-08-17T05:03:39;100715.04;;;25.60;68.28
33795;BME280;51430;52.242;21.118;2023-08-17T05:06:07;100713.56;;;25.66;67.85
33795;BME280;51430;52.242;21.118;2023-08-17T05:08:33;100712.33;;;25.74;67.16
33795;BME280;51430;52.242;21.118;2023-08-17T05:11:00;100708.91;;;25.73;67.07
33795;BME280;51430;52.242;21.118;2023-08-17T05:13:26;100712.77;;;25.74;66.96
33795;BME280;51430;52.242;21.118;2023-08-17T05:15:53;100713.40;;;25.69;67.09
33795;BME280;51430;52.242;21.118;2023-08-17T05:18:19;100715.91;;;25.65;67.07
33795;BME280;51430;52.242;21.118;2023-08-17T05:20:46;100717.23;;;25.62;67.39
33795;BME280;51430;52.242;21.118;2023-08-17T05:23:31;100713.06;;;25.60;67.47
33795;BME280;51430;52.242;21.118;2023-08-17T05:25:58;100712.17;;;25.53;67.68
33795;BME280;51430;52.242;21.118;2023-08-17T05:28:25;100709.94;;;25.49;68.02
33795;BME280;51430;52.242;21.118;2023-08-17T05:31:36;100709.06;;;25.58;67.87
33795;BME280;51430;52.242;21.118;2023-08-17T05:34:07;100713.79;;;25.52;68.03
33795;BME280;51430;52.242;21.118;2023-08-17T05:36:35;100709.92;;;25.55;67.85
33795;BME280;51430;52.242;21.118;2023-08-17T05:39:01;100715.61;;;25.58;67.80
33795;BME280;51430;52.242;21.118;2023-08-17T05:41:31;100712.60;;;25.59;67.83
33795;BME280;51430;52.242;21.118;2023-08-17T05:44:19;100710.20;;;25.52;67.84
33795;BME280;51430;52.242;21.118;2023-08-17T05:46:48;100708.33;;;25.49;68.10
33795;BME280;51430;52.242;21.118;2023-08-17T05:49:15;100704.81;;;25.63;67.58
33795;BME280;51430;52.242;21.118;2023-08-17T05:51:43;100706.06;;;25.67;67.41
33795;BME280;51430;52.242;21.118;2023-08-17T05:54:09;100704.98;;;25.75;67.39
33795;BME280;51430;52.242;21.118;2023-08-17T05:56:37;100707.09;;;25.72;67.28
33795;BME280;51430;52.242;21.118;2023-08-17T05:59:10;100708.58;;;25.80;67.26
33795;BME280;51430;52.242;21.118;2023-08-17T06:01:37;100704.46;;;25.84;67.07
33795;BME280;51430;52.242;21.118;2023-08-17T06:04:32;100708.70;;;25.85;67.15
33795;BME280;51430;52.242;21.118;2023-08-17T06:10:03;100705.53;;;26.07;66.30
33795;BME280;51430;52.242;21.118;2023-08-17T06:12:39;100706.47;;;26.24;65.47
33795;BME280;51430;52.242;21.118;2023-08-17T06:15:47;100702.83;;;26.28;65.26
33795;BME280;51430;52.242;21.118;2023-08-17T06:18:34;100702.50;;;26.33;65.31
33795;BME280;51430;52.242;21.118;2023-08-17T06:21:00;100704.06;;;26.50;64.71
33795;BME280;51430;52.242;21.118;2023-08-17T06:23:29;100702.89;;;26.54;64.63
33795;BME280;51430;52.242;21.118;2023-08-17T06:29:48;100712.75;;;26.82;63.66
33795;BME280;51430;52.242;21.118;2023-08-17T06:32:15;100713.99;;;26.85;63.45
33795;BME280;51430;52.242;21.118;2023-08-17T06:34:42;100718.79;;;27.04;63.06
33795;BME280;51430;52.242;21.118;2023-08-17T06:37:09;100720.01;;;27.18;62.65
33795;BME280;51430;52.242;21.118;2023-08-17T06:39:36;100721.68;;;27.24;62.40
33795;BME280;51430;52.242;21.118;2023-08-17T06:42:07;100721.55;;;27.19;62.10
33795;BME280;51430;52.242;21.118;2023-08-17T06:44:34;100723.14;;;27.11;62.67
33795;BME280;51430;52.242;21.118;2023-08-17T06:47:29;100726.02;;;27.11;62.85
33795;BME280;51430;52.242;21.118;2023-08-17T06:50:00;100730.33;;;27.18;62.68
33795;BME280;51430;52.242;21.118;2023-08-17T06:52:28;100728.66;;;27.28;63.04
33795;BME280;51430;52.242;21.118;2023-08-17T06:54:58;100730.73;;;27.43;62.70
33795;BME280;51430;52.242;21.118;2023-08-17T06:57:32;100732.55;;;27.52;62.77
33795;BME280;51430;52.242;21.118;2023-08-17T06:59:59;100733.19;;;27.66;62.17
33795;BME280;51430;52.242;21.118;2023-08-17T07:02:26;100735.15;;;27.59;62.06
33795;BME280;51430;52.242;21.118;2023-08-17T07:05:10;100733.94;;;27.67;62.05
33795;BME280;51430;52.242;21.118;2023-08-17T07:07:36;100730.92;;;27.87;61.30
33795;BME280;51430;52.242;21.118;2023-08-17T07:10:10;100735.89;;;28.00;61.09
33795;BME280;51430;52.242;21.118;2023-08-17T07:12:38;100735.04;;;28.25;60.88
33795;BME280;51430;52.242;21.118;2023-08-17T07:15:07;100739.54;;;28.56;59.45
33795;BME280;51430;52.242;21.118;2023-08-17T07:17:34;100733.82;;;28.89;59.00
33795;BME280;51430;52.242;21.118;2023-08-17T07:20:04;100738.38;;;29.31;57.46
33795;BME280;51430;52.242;21.118;2023-08-17T07:22:43;100739.23;;;29.44;56.07
33795;BME280;51430;52.242;21.118;2023-08-17T07:25:10;100739.01;;;29.51;55.74
33795;BME280;51430;52.242;21.118;2023-08-17T07:27:37;100737.35;;;29.60;55.46
33795;BME280;51430;52.242;21.118;2023-08-17T07:30:06;100734.70;;;29.64;55.60
33795;BME280;51430;52.242;21.118;2023-08-17T07:32:34;100736.02;;;29.72;54.82
33795;BME280;51430;52.242;21.118;2023-08-17T07:35:02;100735.07;;;29.75;53.69
33795;BME280;51430;52.242;21.118;2023-08-17T07:37:45;100737.18;;;29.65;53.98
33795;BME280;51430;52.242;21.118;2023-08-17T07:40:31;100745.33;;;29.58;53.50
33795;BME280;51430;52.242;21.118;2023-08-17T07:43:04;100747.06;;;29.33;52.50
33795;BME280;51430;52.242;21.118;2023-08-17T07:45:31;100752.33;;;29.27;53.08
33795;BME280;51430;52.242;21.118;2023-08-17T07:47:57;100757.13;;;29.11;53.85
33795;BME280;51430;52.242;21.118;2023-08-17T07:50:25;100757.55;;;29.03;54.63
33795;BME280;51430;52.242;21.118;2023-08-17T07:52:55;100751.53;;;28.91;55.63
33795;BME280;51430;52.242;21.118;2023-08-17T07:55:22;100757.79;;;28.97;55.59
33795;BME280;51430;52.242;21.118;2023-08-17T07:57:49;100760.05;;;29.16;55.17
33795;BME280;51430;52.242;21.118;2023-08-17T08:00:19;100762.55;;;29.04;55.62
33795;BME280;51430;52.242;21.118;2023-08-17T08:02:47;100762.98;;;28.97;55.95
33795;BME280;51430;52.242;21.118;2023-08-17T08:05:13;100756.44;;;28.75;56.97
33795;BME280;51430;52.242;21.118;2023-08-17T08:07:40;100755.40;;;28.76;57.30
33795;BME280;51430;52.242;21.118;2023-08-17T08:10:07;100753.60;;;28.95;57.10
33795;BME280;51430;52.242;21.118;2023-08-17T08:12:34;100750.25;;;29.17;56.61
33795;BME280;51430;52.242;21.118;2023-08-17T08:17:45;100753.55;;;29.72;55.72
33795;BME280;51430;52.242;21.118;2023-08-17T08:20:17;100755.31;;;29.84;54.90
33795;BME280;51430;52.242;21.118;2023-08-17T08:22:45;100755.20;;;30.18;54.06
33795;BME280;51430;52.242;21.118;2023-08-17T08:25:14;100760.19;;;30.20;53.60
33795;BME280;51430;52.242;21.118;2023-08-17T08:27:42;100761.60;;;30.30;53.91
33795;BME280;51430;52.242;21.118;2023-08-17T08:30:12;100755.42;;;31.01;52.19
33795;BME280;51430;52.242;21.118;2023-08-17T08:32:39;100762.09;;;31.37;51.06
33795;BME280;51430;52.242;21.118;2023-08-17T08:35:08;100759.27;;;31.48;49.91
33795;BME280;51430;52.242;21.118;2023-08-17T08:37:44;100758.70;;;31.53;49.92
33795;BME280;51430;52.242;21.118;2023-08-17T08:40:28;100754.59;;;31.53;49.90
33795;BME280;51430;52.242;21.118;2023-08-17T08:43:17;100754.42;;;31.83;50.34
33795;BME280;51430;52.242;21.118;2023-08-17T08:45:46;100751.37;;;32.11;49.54
33795;BME280;51430;52.242;21.118;2023-08-17T08:48:18;100756.46;;;32.01;48.90
33795;BME280;51430;52.242;21.118;2023-08-17T08:50:50;100758.27;;;31.93;48.81
33795;BME280;51430;52.242;21.118;2023-08-17T08:53:37;100757.13;;;32.12;48.96
33795;BME280;51430;52.242;21.118;2023-08-17T08:56:10;100757.74;;;32.09;48.48
33795;BME280;51430;52.242;21.118;2023-08-17T08:58:42;100753.08;;;32.22;48.24
33795;BME280;51430;52.242;21.118;2023-08-17T09:01:22;100754.48;;;32.05;48.80
33795;BME280;51430;52.242;21.118;2023-08-17T09:03:50;100754.30;;;31.98;48.97
33795;BME280;51430;52.242;21.118;2023-08-17T09:06:39;100761.25;;;32.26;48.13
33795;BME280;51430;52.242;21.118;2023-08-17T09:09:10;100757.09;;;32.41;47.64
33795;BME280;51430;52.242;21.118;2023-08-17T09:11:39;100762.20;;;32.71;47.35
33795;BME280;51430;52.242;21.118;2023-08-17T09:14:11;100763.14;;;32.99;46.03
33795;BME280;51430;52.242;21.118;2023-08-17T09:16:42;100766.23;;;33.18;45.68
33795;BME280;51430;52.242;21.118;2023-08-17T09:32:42;100774.83;;;35.24;42.83
33795;BME280;51430;52.242;21.118;2023-08-17T09:48:38;100772.63;;;36.74;39.55
33795;BME280;51430;52.242;21.118;2023-08-17T09:59:13;100764.16;;;36.44;38.97
33795;BME280;51430;52.242;21.118;2023-08-17T10:08:53;100763.60;;;37.01;36.13
33795;BME280;51430;52.242;21.118;2023-08-17T10:22:39;100775.98;;;38.22;32.83
33795;BME280;51430;52.242;21.118;2023-08-17T10:32:01;100766.77;;;38.61;31.08
33795;BME280;51430;52.242;21.118;2023-08-17T10:34:30;100762.86;;;38.88;30.89
33795;BME280;51430;52.242;21.118;2023-08-17T10:36:59;100761.95;;;39.27;30.51
33795;BME280;51430;52.242;21.118;2023-08-17T10:39:44;100758.81;;;39.49;29.79
33795;BME280;51430;52.242;21.118;2023-08-17T10:48:43;100760.64;;;41.04;27.55
33795;BME280;51430;52.242;21.118;2023-08-17T10:52:53;100757.72;;;39.74;29.25
33795;BME280;51430;52.242;21.118;2023-08-17T10:55:41;100750.64;;;40.75;29.18
33795;BME280;51430;52.242;21.118;2023-08-17T10:58:13;100758.81;;;41.33;26.73
33795;BME280;51430;52.242;21.118;2023-08-17T11:00:43;100759.44;;;41.50;25.98
33795;BME280;51430;52.242;21.118;2023-08-17T11:03:32;100760.03;;;42.03;25.71
33795;BME280;51430;52.242;21.118;2023-08-17T11:06:22;100759.67;;;41.95;25.61
33795;BME280;51430;52.242;21.118;2023-08-17T11:10:31;100762.42;;;42.16;24.90
33795;BME280;51430;52.242;21.118;2023-08-17T11:13:38;100756.98;;;42.12;24.95
33795;BME280;51430;52.242;21.118;2023-08-17T11:16:46;100753.88;;;41.94;25.36
33795;BME280;51430;52.242;21.118;2023-08-17T11:20:05;100754.39;;;42.47;25.12
33795;BME280;51430;52.242;21.118;2023-08-17T11:23:55;100750.79;;;42.23;25.66
33795;BME280;51430;52.242;21.118;2023-08-17T11:27:46;100744.58;;;42.11;26.80
33795;BME280;51430;52.242;21.118;2023-08-17T11:31:28;100740.05;;;41.56;27.22
33795;BME280;51430;52.242;21.118;2023-08-17T11:34:41;100743.58;;;41.97;26.67
33795;BME280;51430;52.242;21.118;2023-08-17T11:48:53;100732.86;;;40.57;27.33
33795;BME280;51430;52.242;21.118;2023-08-17T11:52:03;100730.19;;;39.82;28.21
33795;BME280;51430;52.242;21.118;2023-08-17T12:10:04;100727.23;;;38.14;29.06
33795;BME280;51430;52.242;21.118;2023-08-17T12:13:00;100720.48;;;38.76;27.79
33795;BME280;51430;52.242;21.118;2023-08-17T12:16:55;100720.14;;;39.32;27.63
33795;BME280;51430;52.242;21.118;2023-08-17T12:20:18;100720.81;;;39.68;26.36
33795;BME280;51430;52.242;21.118;2023-08-17T12:34:15;100723.03;;;40.13;26.87
33795;BME280;51430;52.242;21.118;2023-08-17T12:36:58;100723.61;;;40.48;26.46
33795;BME280;51430;52.242;21.118;2023-08-17T12:40:40;100720.84;;;41.12;25.41
33795;BME280;51430;52.242;21.118;2023-08-17T12:55:15;100718.38;;;41.68;25.79
33795;BME280;51430;52.242;21.118;2023-08-17T12:57:55;100712.27;;;41.22;26.03
33795;BME280;51430;52.242;21.118;2023-08-17T13:12:07;100706.36;;;40.22;27.31
33795;BME280;51430;52.242;21.118;2023-08-17T13:15:03;100693.09;;;39.71;27.93
33795;BME280;51430;52.242;21.118;2023-08-17T13:18:55;100699.52;;;40.49;27.82
33795;BME280;51430;52.242;21.118;2023-08-17T13:22:26;100703.93;;;41.63;27.56
33795;BME280;51430;52.242;21.118;2023-08-17T13:25:58;100699.29;;;41.08;27.40
33795;BME280;51430;52.242;21.118;2023-08-17T13:40:31;100697.35;;;43.93;24.74
33795;BME280;51430;52.242;21.118;2023-08-17T13:43:24;100696.13;;;43.79;24.07
33795;BME280;51430;52.242;21.118;2023-08-17T13:47:06;100696.58;;;43.65;24.68
33795;BME280;51430;52.242;21.118;2023-08-17T13:50:44;100691.98;;;43.16;24.62
33795;BME280;51430;52.242;21.118;2023-08-17T13:54:23;100687.99;;;44.44;23.97
33795;BME280;51430;52.242;21.118;2023-08-17T14:08:28;100691.16;;;45.92;21.84
33795;BME280;51430;52.242;21.118;2023-08-17T14:49:36;100655.21;;;43.97;23.01
33795;BME280;51430;52.242;21.118;2023-08-17T14:52:32;100652.57;;;44.49;23.44
33795;BME280;51430;52.242;21.118;2023-08-17T14:56:05;100654.29;;;44.13;23.50
33795;BME280;51430;52.242;21.118;2023-08-17T14:59:48;100658.02;;;44.36;23.25
33795;BME280;51430;52.242;21.118;2023-08-17T15:17:30;100663.72;;;44.28;22.47
33795;BME280;51430;52.242;21.118;2023-08-17T15:31:56;100633.49;;;40.97;25.69
33795;BME280;51430;52.242;21.118;2023-08-17T15:35:21;100629.57;;;39.87;27.07
33795;BME280;51430;52.242;21.118;2023-08-17T15:38:27;100624.87;;;39.29;27.44
33795;BME280;51430;52.242;21.118;2023-08-17T15:42:03;100622.71;;;39.73;26.46
33795;BME280;51430;52.242;21.118;2023-08-17T15:45:37;100625.11;;;39.67;27.05
33795;BME280;51430;52.242;21.118;2023-08-17T16:13:22;100645.36;;;36.38;30.12
33795;BME280;51430;52.242;21.118;2023-08-17T16:30:46;100651.44;;;35.07;31.73
33795;BME280;51430;52.242;21.118;2023-08-17T16:34:20;100654.70;;;34.91;32.74
33795;BME280;51430;52.242;21.118;2023-08-17T17:02:15;100655.58;;;34.94;36.94
33795;BME280;51430;52.242;21.118;2023-08-17T17:29:57;100649.34;;;33.64;39.59
33795;BME280;51430;52.242;21.118;2023-08-17T17:32:45;100653.02;;;33.25;40.49
33795;BME280;51430;52.242;21.118;2023-08-17T17:37:09;100649.67;;;33.01;40.64
33795;BME280;51430;52.242;21.118;2023-08-17T17:40:30;100644.84;;;32.70;41.21
33795;BME280;51430;52.242;21.118;2023-08-17T17:45:24;100643.17;;;32.42;42.88
33795;BME280;51430;52.242;21.118;2023-08-17T17:49:01;100634.15;;;32.21;44.02
33795;BME280;51430;52.242;21.118;2023-08-17T17:52:45;100632.06;;;31.94;44.19
33795;BME280;51430;52.242;21.118;2023-08-17T18:06:15;100627.55;;;31.63;45.52
33795;BME280;51430;52.242;21.118;2023-08-17T18:09:45;100623.99;;;31.35;46.22
33795;BME280;51430;52.242;21.118;2023-08-17T18:12:47;100620.95;;;31.04;46.61
33795;BME280;51430;52.242;21.118;2023-08-17T18:16:19;100625.80;;;30.83;46.21
33795;BME280;51430;52.242;21.118;2023-08-17T18:25:08;100629.63;;;30.41;46.86
33795;BME280;51430;52.242;21.118;2023-08-17T18:28:53;100630.41;;;30.34;47.37
33795;BME280;51430;52.242;21.118;2023-08-17T18:32:39;100631.05;;;30.18;47.70
33795;BME280;51430;52.242;21.118;2023-08-17T18:36:23;100628.98;;;29.93;48.25
33795;BME280;51430;52.242;21.118;2023-08-17T18:43:38;100631.57;;;29.57;49.60
33795;BME280;51430;52.242;21.118;2023-08-17T18:47:10;100634.17;;;29.38;50.47
33795;BME280;51430;52.242;21.118;2023-08-17T18:50:38;100635.48;;;29.28;50.14
33795;BME280;51430;52.242;21.118;2023-08-17T18:54:32;100634.35;;;29.35;49.70
33795;BME280;51430;52.242;21.118;2023-08-17T18:58:08;100628.89;;;29.30;50.47
33795;BME280;51430;52.242;21.118;2023-08-17T19:12:10;100622.02;;;29.27;51.16
33795;BME280;51430;52.242;21.118;2023-08-17T19:15:17;100622.92;;;29.13;51.63
33795;BME280;51430;52.242;21.118;2023-08-17T19:29:05;100626.25;;;29.03;52.88
33795;BME280;51430;52.242;21.118;2023-08-17T19:32:38;100627.00;;;28.80;54.15
33795;BME280;51430;52.242;21.118;2023-08-17T19:36:07;100624.80;;;28.54;54.31
33795;BME280;51430;52.242;21.118;2023-08-17T19:39:42;100619.80;;;28.41;54.22
33795;BME280;51430;52.242;21.118;2023-08-17T19:42:59;100614.57;;;28.29;53.99
33795;BME280;51430;52.242;21.118;2023-08-17T19:46:43;100613.61;;;28.31;54.31
33795;BME280;51430;52.242;21.118;2023-08-17T19:50:46;100611.35;;;28.22;54.91
33795;BME280;51430;52.242;21.118;2023-08-17T19:54:07;100614.98;;;28.04;55.65
33795;BME280;51430;52.242;21.118;2023-08-17T19:58:04;100620.05;;;27.94;56.07
33795;BME280;51430;52.242;21.118;2023-08-17T20:01:26;100627.52;;;27.81;56.68
33795;BME280;51430;52.242;21.118;2023-08-17T20:05:21;100628.89;;;27.71;57.25
33795;BME280;51430;52.242;21.118;2023-08-17T20:08:58;100633.71;;;27.60;57.67
33795;BME280;51430;52.242;21.118;2023-08-17T20:12:41;100633.89;;;27.48;57.98
33795;BME280;51430;52.242;21.118;2023-08-17T20:16:18;100640.08;;;27.37;58.41
33795;BME280;51430;52.242;21.118;2023-08-17T20:18:49;100647.92;;;27.31;58.45
33795;BME280;51430;52.242;21.118;2023-08-17T20:21:44;100648.77;;;27.38;58.05
33795;BME280;51430;52.242;21.118;2023-08-17T20:24:12;100645.52;;;27.33;57.28
33795;BME280;51430;52.242;21.118;2023-08-17T20:26:41;100646.09;;;27.35;57.05
33795;BME280;51430;52.242;21.118;2023-08-17T20:31:25;100650.95;;;27.22;56.55
33795;BME280;51430;52.242;21.118;2023-08-17T20:34:40;100652.58;;;27.09;57.01
33795;BME280;51430;52.242;21.118;2023-08-17T20:38:23;100659.39;;;27.02;56.97
33795;BME280;51430;52.242;21.118;2023-08-17T20:42:34;100666.71;;;27.02;56.68
33795;BME280;51430;52.242;21.118;2023-08-17T20:46:06;100665.16;;;26.87;56.10
33795;BME280;51430;52.242;21.118;2023-08-17T20:49:51;100665.83;;;26.94;56.31
33795;BME280;51430;52.242;21.118;2023-08-17T20:53:39;100659.26;;;26.88;56.32
33795;BME280;51430;52.242;21.118;2023-08-17T20:58:06;100658.98;;;26.84;56.18
33795;BME280;51430;52.242;21.118;2023-08-17T21:01:30;100663.62;;;26.80;55.97
33795;BME280;51430;52.242;21.118;2023-08-17T21:05:16;100669.16;;;26.82;56.65
33795;BME280;51430;52.242;21.118;2023-08-17T21:08:59;100666.60;;;26.79;56.03
33795;BME280;51430;52.242;21.118;2023-08-17T21:13:08;100664.48;;;26.72;56.16
33795;BME280;51430;52.242;21.118;2023-08-17T21:16:50;100669.77;;;26.73;56.22
33795;BME280;51430;52.242;21.118;2023-08-17T21:20:20;100674.07;;;26.71;57.05
33795;BME280;51430;52.242;21.118;2023-08-17T21:24:00;100660.05;;;26.56;57.87
33795;BME280;51430;52.242;21.118;2023-08-17T21:27:36;100654.41;;;26.36;57.91
33795;BME280;51430;52.242;21.118;2023-08-17T21:31:15;100664.23;;;26.29;58.00
33795;BME280;51430;52.242;21.118;2023-08-17T21:35:20;100662.91;;;26.20;58.27
33795;BME280;51430;52.242;21.118;2023-08-17T21:38:56;100664.27;;;26.11;58.62
33795;BME280;51430;52.242;21.118;2023-08-17T21:41:31;100659.63;;;26.06;58.45
33795;BME280;51430;52.242;21.118;2023-08-17T21:44:00;100658.01;;;26.11;58.28
33795;BME280;51430;52.242;21.118;2023-08-17T21:46:45;100656.30;;;26.18;58.13
33795;BME280;51430;52.242;21.118;2023-08-17T21:49:32;100655.15;;;26.21;57.75
33795;BME280;51430;52.242;21.118;2023-08-17T21:55:52;100662.65;;;26.21;57.61
33795;BME280;51430;52.242;21.118;2023-08-17T21:58:59;100666.13;;;26.18;57.79
33795;BME280;51430;52.242;21.118;2023-08-17T22:02:00;100666.79;;;26.21;57.72
33795;BME280;51430;52.242;21.118;2023-08-17T22:04:58;100668.14;;;26.26;57.87
33795;BME280;51430;52.242;21.118;2023-08-17T22:08:44;100669.25;;;26.20;57.89
33795;BME280;51430;52.242;21.118;2023-08-17T22:12:06;100666.25;;;26.15;57.87
33795;BME280;51430;52.242;21.118;2023-08-17T22:14:57;100661.70;;;26.22;57.50
33795;BME280;51430;52.242;21.118;2023-08-17T22:18:19;100657.62;;;26.23;57.77
33795;BME280;51430;52.242;21.118;2023-08-17T22:21:32;100654.15;;;26.20;57.76
33795;BME280;51430;52.242;21.118;2023-08-17T22:24:21;100655.48;;;26.23;57.61
33795;BME280;51430;52.242;21.118;2023-08-17T22:28:40;100654.34;;;26.26;57.45
33795;BME280;51430;52.242;21.118;2023-08-17T22:31:51;100654.77;;;26.15;57.74
33795;BME280;51430;52.242;21.118;2023-08-17T22:35:00;100662.09;;;26.19;57.36
33795;BME280;51430;52.242;21.118;2023-08-17T22:38:09;100664.80;;;26.20;57.34
33795;BME280;51430;52.242;21.118;2023-08-17T22:41:07;100674.41;;;26.23;57.30
33795;BME280;51430;52.242;21.118;2023-08-17T22:43:56;100682.82;;;26.28;57.24
33795;BME280;51430;52.242;21.118;2023-08-17T22:47:05;100689.94;;;26.35;57.17
33795;BME280;51430;52.242;21.118;2023-08-17T22:49:54;100689.52;;;26.22;57.47
33795;BME280;51430;52.242;21.118;2023-08-17T22:52:23;100687.02;;;26.31;58.12
33795;BME280;51430;52.242;21.118;2023-08-17T22:57:14;100696.20;;;26.44;58.87
33795;BME280;51430;52.242;21.118;2023-08-17T22:59:44;100703.27;;;26.35;58.88
33795;BME280;51430;52.242;21.118;2023-08-17T23:02:14;100703.52;;;26.41;58.50
33795;BME280;51430;52.242;21.118;2023-08-17T23:05:06;100704.70;;;26.44;59.19
33795;BME280;51430;52.242;21.118;2023-08-17T23:08:05;100713.20;;;26.42;58.71
33795;BME280;51430;52.242;21.118;2023-08-17T23:10:38;100717.23;;;26.33;58.17
33795;BME280;51430;52.242;21.118;2023-08-17T23:13:08;100713.19;;;26.28;58.41
33795;BME280;51430;52.242;21.118;2023-08-17T23:15:39;100704.09;;;26.22;58.61
33795;BME280;51430;52.242;21.118;2023-08-17T23:21:09;100701.43;;;26.27;59.61
33795;BME280;51430;52.242;21.118;2023-08-17T23:39:44;100680.11;;;25.54;63.31
33795;BME280;51430;52.242;21.118;2023-08-17T23:44:52;100672.02;;;25.44;64.14
33795;BME280;51430;52.242;21.118;2023-08-17T23:52:13;100682.91;;;25.13;65.24
33795;BME280;51430;52.242;21.118;2023-08-17T23:56:12;100676.58;;;25.01;65.43
